createdAt,value
2023-04-23T00:00:13.502Z,16.27
2023-04-23T00:02:44.197Z,16.53
2023-04-23T00:05:14.462Z,16.57
2023-04-23T00:07:43.308Z,17.30
2023-04-23T00:10:13.645Z,17.17
2023-04-23T00:12:43.727Z,16.70
2023-04-23T00:15:13.322Z,16.27
2023-04-23T00:17:42.424Z,15.90
2023-04-23T00:20:11.118Z,15.63
2023-04-23T00:22:38.870Z,15.70
2023-04-23T00:25:07.164Z,15.47
2023-04-23T00:27:37.837Z,15.33
2023-04-23T00:30:06.915Z,14.70
2023-04-23T00:32:34.678Z,14.57
2023-04-23T00:35:02.555Z,14.53
2023-04-23T00:37:30.289Z,15.03
2023-04-23T00:39:58.151Z,15.10
2023-04-23T00:42:26.972Z,16.00
2023-04-23T00:44:57.414Z,15.47
2023-04-23T00:47:25.777Z,16.13
2023-04-23T00:49:55.682Z,16.20
2023-04-23T00:52:23.580Z,17.00
2023-04-23T00:54:51.448Z,16.27
2023-04-23T00:57:19.338Z,15.23
2023-04-23T00:59:47.641Z,15.80
2023-04-23T01:02:17.682Z,16.33
2023-04-23T01:04:45.995Z,16.13
2023-04-23T01:07:13.924Z,15.63
2023-04-23T01:09:41.993Z,16.83
2023-04-23T01:12:11.126Z,16.67
2023-04-23T01:14:39.426Z,15.30
2023-04-23T01:17:08.577Z,16.77
2023-04-23T01:19:37.855Z,15.87
2023-04-23T01:22:10.579Z,16.60
2023-04-23T01:24:39.222Z,15.97
2023-04-23T01:27:07.360Z,16.27
2023-04-23T01:29:35.720Z,16.00
2023-04-23T01:32:04.564Z,16.47
2023-04-23T01:34:33.079Z,16.87
2023-04-23T01:37:00.934Z,16.63
2023-04-23T01:39:30.182Z,16.40
2023-04-23T01:41:58.401Z,16.97
2023-04-23T01:44:26.237Z,16.10
2023-04-23T01:46:54.199Z,16.27
2023-04-23T01:49:22.080Z,16.33
2023-04-23T01:51:50.352Z,16.87
2023-04-23T01:54:18.079Z,16.73
2023-04-23T01:56:47.260Z,16.70
2023-04-23T01:59:15.025Z,16.73
2023-04-23T02:01:44.475Z,17.53
2023-04-23T02:04:13.226Z,16.23
2023-04-23T02:06:41.854Z,16.23
2023-04-23T02:09:09.641Z,18.23
2023-04-23T02:11:37.407Z,17.00
2023-04-23T02:14:07.647Z,18.73
2023-04-23T02:16:38.200Z,18.10
2023-04-23T02:19:06.042Z,16.70
2023-04-23T02:21:33.895Z,17.60
2023-04-23T02:24:01.656Z,17.70
2023-04-23T02:26:29.711Z,18.90
2023-04-23T02:28:57.480Z,18.20
2023-04-23T02:31:27.094Z,18.43
2023-04-23T02:33:54.988Z,18.10
2023-04-23T02:36:22.745Z,17.63
2023-04-23T02:38:51.209Z,17.70
2023-04-23T02:41:19.103Z,18.13
2023-04-23T02:43:46.948Z,18.93
2023-04-23T02:46:14.908Z,18.50
2023-04-23T02:48:44.343Z,19.33
2023-04-23T02:51:13.706Z,19.57
2023-04-23T02:53:41.711Z,19.87
2023-04-23T02:56:09.651Z,18.93
2023-04-23T02:58:37.657Z,19.20
2023-04-23T03:01:06.154Z,20.13
2023-04-23T03:03:34.985Z,20.63
2023-04-23T03:06:06.185Z,21.20
2023-04-23T03:08:33.941Z,21.57
2023-04-23T03:11:01.699Z,20.47
2023-04-23T03:13:29.451Z,20.77
2023-04-23T03:15:57.641Z,20.03
2023-04-23T03:18:25.563Z,21.80
2023-04-23T03:20:54.543Z,21.47
2023-04-23T03:23:23.661Z,20.90
2023-04-23T03:25:51.466Z,20.63
2023-04-23T03:28:19.378Z,20.60
2023-04-23T03:30:47.155Z,19.63
2023-04-23T03:33:15.410Z,19.07
2023-04-23T03:35:45.503Z,20.20
2023-04-23T03:38:13.321Z,19.43
2023-04-23T03:40:42.494Z,19.67
2023-04-23T03:43:10.386Z,19.60
2023-04-23T03:45:38.308Z,20.47
2023-04-23T03:48:06.317Z,20.33
2023-04-23T03:50:38.948Z,22.27
2023-04-23T03:53:09.959Z,20.27
2023-04-23T03:55:37.711Z,21.40
2023-04-23T03:58:06.826Z,20.77
2023-04-23T04:00:34.814Z,21.50
2023-04-23T04:03:02.751Z,21.10
2023-04-23T04:05:31.002Z,21.33
2023-04-23T04:07:58.848Z,20.13
2023-04-23T04:10:26.813Z,20.47
2023-04-23T04:12:55.334Z,20.53
2023-04-23T04:15:24.428Z,21.40
2023-04-23T04:17:52.253Z,20.13
2023-04-23T04:20:20.235Z,20.83
2023-04-23T04:22:48.474Z,20.57
2023-04-23T04:25:16.237Z,19.73
2023-04-23T04:27:45.814Z,19.33
2023-04-23T04:30:14.382Z,18.87
2023-04-23T04:32:46.364Z,17.97
2023-04-23T04:35:14.833Z,16.93
2023-04-23T04:37:44.016Z,16.40
2023-04-23T04:40:13.018Z,18.20
2023-04-23T04:42:40.772Z,17.20
2023-04-23T04:45:10.455Z,17.00
2023-04-23T04:47:38.279Z,16.50
2023-04-23T04:50:08.674Z,15.83
2023-04-23T04:52:37.073Z,14.43
2023-04-23T04:55:05.475Z,15.80
2023-04-23T04:57:33.217Z,14.63
2023-04-23T05:00:05.108Z,15.10
2023-04-23T05:02:33.014Z,14.87
2023-04-23T05:05:01.123Z,14.17
2023-04-23T05:07:30.270Z,14.40
2023-04-23T05:09:58.060Z,14.17
2023-04-23T05:12:25.826Z,14.70
2023-04-23T05:14:54.322Z,14.57
2023-04-23T05:17:22.230Z,14.50
2023-04-23T05:19:50.028Z,14.53
2023-04-23T05:22:18.280Z,15.70
2023-04-23T05:24:47.573Z,13.90
2023-04-23T05:27:15.347Z,13.30
2023-04-23T05:29:43.081Z,13.27
2023-04-23T05:32:11.129Z,14.33
2023-04-23T05:34:39.600Z,13.40
2023-04-23T05:37:07.615Z,13.53
2023-04-23T05:39:35.389Z,13.40
2023-04-23T05:42:05.072Z,13.63
2023-04-23T05:44:32.810Z,14.20
2023-04-23T05:47:01.067Z,13.30
2023-04-23T05:49:28.821Z,13.43
2023-04-23T05:51:58.619Z,12.70
2023-04-23T05:54:26.456Z,12.70
2023-04-23T05:56:54.701Z,13.00
2023-04-23T05:59:23.884Z,12.47
2023-04-23T06:01:52.387Z,12.73
2023-04-23T06:04:20.773Z,13.03
2023-04-23T06:06:48.822Z,12.70
2023-04-23T06:09:16.625Z,12.47
2023-04-23T06:11:44.474Z,11.80
2023-04-23T06:14:12.228Z,12.20
2023-04-23T06:16:41.416Z,11.87
2023-04-23T06:19:09.349Z,11.83
2023-04-23T06:21:37.184Z,11.60
2023-04-23T06:24:05.223Z,11.47
2023-04-23T06:26:33.354Z,11.30
2023-04-23T06:29:01.230Z,10.67
2023-04-23T06:31:29.466Z,11.30
2023-04-23T06:33:58.740Z,11.80
2023-04-23T06:36:26.435Z,11.40
2023-04-23T06:38:54.205Z,11.93
2023-04-23T06:41:21.964Z,11.23
2023-04-23T06:43:49.669Z,10.80
2023-04-23T06:46:17.542Z,11.67
2023-04-23T06:48:45.454Z,10.77
2023-04-23T06:51:14.790Z,11.73
2023-04-23T06:53:44.114Z,12.20
2023-04-23T06:56:14.176Z,11.70
2023-04-23T06:58:42.494Z,11.43
2023-04-23T07:01:11.542Z,11.97
2023-04-23T07:03:39.402Z,11.73
2023-04-23T07:06:07.511Z,12.40
2023-04-23T07:08:36.672Z,11.83
2023-04-23T07:11:04.541Z,11.87
2023-04-23T07:13:32.353Z,12.27
2023-04-23T07:16:00.179Z,11.47
2023-04-23T07:18:28.093Z,11.80
2023-04-23T07:20:56.137Z,11.23
2023-04-23T07:23:23.945Z,12.03
2023-04-23T07:25:53.640Z,11.87
2023-04-23T07:28:21.590Z,11.67
2023-04-23T07:30:49.514Z,11.20
2023-04-23T07:33:18.178Z,11.00
2023-04-23T07:35:45.952Z,11.90
2023-04-23T07:38:13.697Z,11.53
2023-04-23T07:40:41.546Z,12.20
2023-04-23T07:43:10.794Z,11.90
2023-04-23T07:45:38.690Z,11.33
2023-04-23T07:48:06.508Z,12.53
2023-04-23T07:50:34.234Z,12.63
2023-04-23T07:53:02.054Z,12.83
2023-04-23T07:55:29.943Z,12.63
2023-04-23T07:57:57.683Z,13.47
2023-04-23T08:00:26.809Z,13.73
2023-04-23T08:02:55.002Z,13.03
2023-04-23T08:05:23.122Z,12.63
2023-04-23T08:07:50.915Z,13.17
2023-04-23T08:10:18.735Z,13.00
2023-04-23T08:12:46.617Z,11.40
2023-04-23T08:15:15.245Z,10.67
2023-04-23T08:17:44.319Z,10.03
2023-04-23T08:20:12.704Z,10.47
2023-04-23T08:22:40.510Z,10.07
2023-04-23T08:25:09.248Z,11.07
2023-04-23T08:27:37.107Z,10.27
2023-04-23T08:30:06.835Z,9.23
2023-04-23T08:32:34.598Z,10.03
2023-04-23T08:35:04.653Z,10.10
2023-04-23T08:37:32.422Z,8.93
2023-04-23T08:40:00.278Z,8.63
2023-04-23T08:42:37.645Z,9.27
2023-04-23T08:45:06.570Z,8.27
2023-04-23T08:47:35.683Z,8.80
2023-04-23T08:50:06.105Z,8.70
2023-04-23T08:52:35.864Z,9.03
2023-04-23T08:55:06.180Z,8.40
2023-04-23T08:57:34.397Z,10.27
2023-04-23T09:00:05.589Z,8.70
2023-04-23T09:02:33.667Z,8.87
2023-04-23T09:05:05.510Z,9.00
2023-04-23T09:07:34.341Z,8.33
2023-04-23T09:10:02.156Z,7.90
2023-04-23T09:12:30.009Z,8.73
2023-04-23T09:14:58.266Z,7.83
2023-04-23T09:17:30.147Z,7.77
2023-04-23T09:19:58.103Z,8.10
2023-04-23T09:22:46.582Z,7.70
2023-04-23T09:25:16.240Z,8.00
2023-04-23T09:27:44.115Z,9.57
2023-04-23T09:30:12.930Z,8.47
2023-04-23T09:32:42.027Z,9.40
2023-04-23T09:35:11.079Z,8.50
2023-04-23T09:37:40.302Z,9.43
2023-04-23T09:40:10.651Z,8.47
2023-04-23T09:42:39.609Z,8.40
2023-04-23T09:45:09.237Z,8.50
2023-04-23T09:47:43.068Z,8.13
2023-04-23T09:50:11.658Z,8.53
2023-04-23T09:52:40.386Z,8.87
2023-04-23T09:55:10.381Z,8.57
2023-04-23T09:57:38.589Z,8.00
2023-04-23T10:00:16.874Z,8.20
2023-04-23T10:02:48.873Z,7.50
2023-04-23T10:05:24.190Z,7.93
2023-04-23T10:07:54.020Z,7.60
2023-04-23T10:10:23.303Z,7.60
2023-04-23T10:12:55.206Z,7.60
2023-04-23T10:15:24.807Z,7.13
2023-04-23T10:17:53.289Z,6.50
2023-04-23T10:20:23.689Z,5.83
2023-04-23T10:22:53.868Z,5.53
2023-04-23T10:25:24.457Z,5.07
2023-04-23T10:27:54.801Z,5.00
2023-04-23T10:30:23.252Z,4.53
2023-04-23T10:32:51.569Z,4.83
2023-04-23T10:35:19.556Z,4.40
2023-04-23T10:37:48.197Z,4.47
2023-04-23T10:40:17.767Z,4.20
2023-04-23T10:42:47.410Z,4.07
2023-04-23T10:45:24.108Z,4.30
2023-04-23T10:47:54.687Z,4.17
2023-04-23T10:50:27.557Z,3.63
2023-04-23T10:52:57.300Z,3.53
2023-04-23T10:55:27.282Z,3.30
2023-04-23T10:58:02.428Z,3.30
2023-04-23T11:00:32.266Z,3.30
2023-04-23T11:03:00.138Z,3.13
2023-04-23T11:05:29.277Z,3.13
2023-04-23T11:08:18.934Z,3.37
2023-04-23T11:10:57.561Z,3.20
2023-04-23T11:13:27.995Z,3.00
2023-04-23T11:16:15.557Z,3.10
2023-04-23T11:18:57.312Z,3.63
2023-04-23T11:22:00.095Z,3.17
2023-04-23T11:24:32.209Z,2.87
2023-04-23T11:27:01.188Z,3.00
2023-04-23T11:29:30.664Z,2.87
2023-04-23T11:32:03.082Z,3.20
2023-04-23T11:34:31.766Z,3.27
2023-04-23T11:37:01.232Z,3.00
2023-04-23T11:39:29.102Z,3.20
2023-04-23T11:41:57.735Z,3.13
2023-04-23T11:44:25.627Z,2.90
2023-04-23T11:46:57.075Z,3.00
2023-04-23T11:49:26.208Z,3.20
2023-04-23T11:51:53.998Z,2.87
2023-04-23T11:54:27.596Z,2.70
2023-04-23T11:56:55.948Z,3.07
2023-04-23T11:59:24.331Z,2.80
2023-04-23T12:01:55.067Z,3.00
2023-04-23T12:04:24.089Z,2.60
2023-04-23T12:06:52.914Z,3.23
2023-04-23T12:09:22.191Z,2.90
2023-04-23T12:11:51.305Z,3.10
2023-04-23T12:14:20.972Z,2.90
2023-04-23T12:16:52.335Z,2.87
2023-04-23T12:19:23.453Z,2.70
2023-04-23T12:21:54.637Z,3.00
2023-04-23T12:24:23.681Z,2.70
2023-04-23T12:26:54.599Z,3.00
2023-04-23T12:29:23.409Z,3.13
2023-04-23T12:31:52.224Z,2.80
2023-04-23T12:34:22.125Z,3.00
2023-04-23T12:36:51.279Z,3.63
2023-04-23T12:39:25.253Z,2.70
2023-04-23T12:41:54.573Z,3.10
2023-04-23T12:44:22.737Z,2.87
2023-04-23T12:46:57.883Z,2.90
2023-04-23T12:49:28.177Z,3.00
2023-04-23T12:52:00.984Z,3.10
2023-04-23T12:54:31.320Z,2.70
2023-04-23T12:56:59.426Z,3.17
2023-04-23T12:59:27.662Z,2.83
2023-04-23T13:01:55.684Z,3.10
2023-04-23T13:04:23.506Z,3.00
2023-04-23T13:06:52.833Z,3.13
2023-04-23T13:09:21.829Z,3.17
2023-04-23T13:11:49.946Z,2.73
2023-04-23T13:14:18.072Z,3.07
2023-04-23T13:16:46.110Z,2.43
2023-04-23T13:19:14.148Z,2.60
2023-04-23T13:21:42.008Z,2.37
2023-04-23T13:24:11.308Z,2.43
2023-04-23T13:26:39.174Z,2.90
2023-04-23T13:29:07.267Z,2.30
2023-04-23T13:31:35.153Z,2.83
2023-04-23T13:34:03.110Z,2.70
2023-04-23T13:36:31.382Z,2.60
2023-04-23T13:38:59.172Z,2.20
2023-04-23T13:41:28.261Z,2.80
2023-04-23T13:43:56.035Z,2.83
2023-04-23T13:46:23.809Z,2.30
2023-04-23T13:48:51.637Z,2.17
2023-04-23T13:51:33.774Z,2.50
2023-04-23T13:54:02.850Z,2.60
2023-04-23T13:56:32.351Z,2.63
2023-04-23T14:01:33.124Z,2.43
2023-04-23T14:04:01.005Z,2.53
2023-04-23T14:06:28.877Z,2.43
2023-04-23T14:08:56.709Z,2.53
2023-04-23T14:11:24.536Z,2.37
2023-04-23T14:13:53.709Z,2.33
2023-04-23T14:16:21.623Z,2.80
2023-04-23T14:18:49.343Z,2.80
2023-04-23T14:21:18.158Z,2.93
2023-04-23T14:23:50.645Z,3.30
2023-04-23T14:26:26.244Z,3.10
2023-04-23T14:29:04.332Z,3.07
2023-04-23T14:31:32.242Z,3.57
2023-04-23T14:34:00.020Z,3.00
2023-04-23T14:36:27.916Z,3.40
2023-04-23T14:38:55.753Z,3.77
2023-04-23T14:41:24.380Z,3.73
2023-04-23T14:43:52.138Z,4.30
2023-04-23T14:46:21.380Z,4.00
2023-04-23T14:48:51.414Z,3.90
2023-04-23T14:51:19.424Z,3.90
2023-04-23T14:53:47.308Z,3.57
2023-04-23T14:56:15.152Z,3.90
2023-04-23T14:58:42.959Z,4.00
2023-04-23T15:01:10.775Z,3.80
2023-04-23T15:03:40.206Z,4.10
2023-04-23T15:06:08.496Z,4.00
2023-04-23T15:08:36.596Z,4.30
2023-04-23T15:11:06.286Z,4.10
2023-04-23T15:13:39.624Z,3.90
2023-04-23T15:16:10.918Z,4.50
2023-04-23T15:18:40.328Z,4.57
2023-04-23T15:21:08.105Z,4.10
2023-04-23T15:23:36.194Z,4.10
2023-04-23T15:26:03.982Z,4.17
2023-04-23T15:28:31.699Z,4.83
2023-04-23T15:30:59.701Z,5.00
2023-04-23T15:33:27.677Z,4.87
2023-04-23T15:35:59.398Z,5.60
2023-04-23T15:38:28.209Z,5.40
2023-04-23T15:40:57.025Z,4.93
2023-04-23T15:43:25.894Z,4.87
2023-04-23T15:45:55.486Z,4.90
2023-04-23T15:48:24.229Z,5.53
2023-04-23T15:50:52.402Z,5.07
2023-04-23T15:53:22.986Z,5.60
2023-04-23T15:55:51.567Z,5.47
2023-04-23T15:58:19.435Z,5.53
2023-04-23T16:00:47.774Z,5.30
2023-04-23T16:03:16.411Z,5.73
2023-04-23T16:05:44.801Z,5.80
2023-04-23T16:08:14.022Z,5.60
2023-04-23T16:10:43.164Z,5.37
2023-04-23T16:13:11.211Z,4.90
2023-04-23T16:15:39.046Z,5.50
2023-04-23T16:18:07.107Z,5.70
2023-04-23T16:20:36.086Z,5.17
2023-04-23T16:23:04.009Z,5.43
2023-04-23T16:25:31.896Z,5.60
2023-04-23T16:28:01.069Z,5.60
2023-04-23T16:30:29.084Z,5.50
2023-04-23T16:32:56.773Z,5.57
2023-04-23T16:35:24.629Z,5.00
2023-04-23T16:37:52.463Z,5.57
2023-04-23T16:40:21.515Z,5.47
2023-04-23T16:42:49.649Z,6.10
2023-04-23T16:45:22.988Z,5.87
2023-04-23T16:47:51.046Z,5.63
2023-04-23T16:50:19.053Z,6.03
2023-04-23T16:52:47.066Z,6.30
2023-04-23T16:55:15.034Z,6.33
2023-04-23T16:57:42.849Z,6.20
2023-04-23T17:00:12.629Z,6.03
2023-04-23T17:02:42.872Z,5.77
2023-04-23T17:05:11.346Z,5.73
2023-04-23T17:07:40.795Z,6.67
2023-04-23T17:10:09.767Z,5.93
2023-04-23T17:12:37.501Z,5.87
2023-04-23T17:15:05.934Z,5.93
2023-04-23T17:17:33.776Z,5.87
2023-04-23T17:20:03.858Z,6.37
2023-04-23T17:22:31.731Z,6.13
2023-04-23T17:24:59.426Z,5.83
2023-04-23T17:27:27.211Z,6.03
2023-04-23T17:29:54.958Z,5.93
2023-04-23T17:32:22.791Z,6.17
2023-04-23T17:34:59.230Z,6.67
2023-04-23T17:37:28.778Z,6.00
2023-04-23T17:39:56.527Z,6.03
2023-04-23T17:42:24.397Z,6.17
2023-04-23T17:44:53.660Z,6.17
2023-04-23T17:47:22.015Z,5.67
2023-04-23T17:49:49.762Z,6.13
2023-04-23T17:52:17.637Z,6.20
2023-04-23T17:54:46.835Z,6.20
2023-04-23T17:57:14.650Z,5.97
2023-04-23T17:59:42.684Z,6.17
2023-04-23T18:02:11.308Z,6.37
2023-04-23T18:04:39.085Z,6.37
2023-04-23T18:07:06.807Z,6.13
2023-04-23T18:09:34.623Z,6.40
2023-04-23T18:12:03.922Z,6.93
2023-04-23T18:14:31.792Z,6.57
2023-04-23T18:16:59.625Z,6.83
2023-04-23T18:19:27.477Z,6.67
2023-04-23T18:21:55.776Z,6.90
2023-04-23T18:24:23.588Z,6.90
2023-04-23T18:26:52.173Z,6.43
2023-04-23T18:29:21.505Z,6.50
2023-04-23T18:31:49.331Z,6.33
2023-04-23T18:34:19.959Z,6.43
2023-04-23T18:36:50.418Z,6.60
2023-04-23T18:39:18.240Z,6.60
2023-04-23T18:41:46.310Z,6.33
2023-04-23T18:44:14.323Z,6.50
2023-04-23T18:46:43.677Z,6.27
2023-04-23T18:49:44.975Z,6.63
2023-04-23T18:52:12.955Z,6.87
2023-04-23T18:54:40.894Z,6.67
2023-04-23T18:57:09.050Z,6.13
2023-04-23T18:59:37.539Z,6.50
2023-04-23T19:02:07.034Z,6.40
2023-04-23T19:04:35.249Z,6.73
2023-04-23T19:07:03.271Z,6.30
2023-04-23T19:09:31.478Z,6.80
2023-04-23T19:11:59.307Z,7.13
2023-04-23T19:14:27.205Z,7.43
2023-04-23T19:16:55.150Z,7.73
2023-04-23T19:19:24.496Z,8.17
2023-04-23T19:21:52.366Z,7.57
2023-04-23T19:24:20.211Z,7.80
2023-04-23T19:26:48.001Z,8.30
2023-04-23T19:29:15.809Z,7.80
2023-04-23T19:31:43.717Z,7.57
2023-04-23T19:34:13.679Z,7.83
2023-04-23T19:36:42.828Z,7.47
2023-04-23T19:39:11.432Z,7.47
2023-04-23T19:41:39.239Z,7.93
2023-04-23T19:44:07.022Z,8.07
2023-04-23T19:46:34.899Z,7.93
2023-04-23T19:49:02.643Z,7.77
2023-04-23T19:51:35.330Z,7.70
2023-04-23T19:54:06.246Z,7.83
2023-04-23T19:56:34.092Z,7.57
2023-04-23T19:59:01.949Z,8.03
2023-04-23T20:01:32.539Z,7.67
2023-04-23T20:04:00.613Z,7.17
2023-04-23T20:06:29.225Z,7.87
2023-04-23T20:09:07.993Z,8.20
2023-04-23T20:11:37.276Z,7.90
2023-04-23T20:14:06.019Z,7.60
2023-04-23T20:16:34.355Z,7.83
2023-04-23T20:19:04.876Z,7.73
2023-04-23T20:21:32.848Z,6.90
2023-04-23T20:24:00.658Z,7.83
2023-04-23T20:26:28.463Z,8.00
2023-04-23T20:28:57.799Z,7.53
2023-04-23T20:31:25.687Z,7.80
2023-04-23T20:33:53.610Z,7.60
2023-04-23T20:36:21.456Z,7.67
2023-04-23T20:38:49.246Z,7.93
2023-04-23T20:41:17.121Z,7.90
2023-04-23T20:43:45.034Z,8.63
2023-04-23T20:46:14.254Z,7.87
2023-04-23T20:48:43.348Z,7.83
2023-04-23T20:51:11.170Z,7.93
2023-04-23T20:53:38.930Z,8.37
2023-04-23T20:56:06.737Z,8.47
2023-04-23T20:58:34.585Z,8.63
2023-04-23T21:01:04.599Z,8.60
2023-04-23T21:03:36.661Z,7.93
2023-04-23T21:06:04.772Z,8.53
2023-04-23T21:08:32.676Z,8.50
2023-04-23T21:11:00.540Z,8.20
2023-04-23T21:13:28.508Z,7.90
2023-04-23T21:15:56.606Z,8.33
2023-04-23T21:18:24.423Z,8.67
2023-04-23T21:20:53.621Z,8.10
2023-04-23T21:23:21.421Z,7.90
2023-04-23T21:25:49.282Z,7.47
2023-04-23T21:28:17.161Z,6.87
2023-04-23T21:30:47.678Z,7.23
2023-04-23T21:33:15.621Z,7.03
2023-04-23T21:35:43.544Z,6.73
2023-04-23T21:38:13.198Z,6.90
2023-04-23T21:40:41.469Z,6.97
2023-04-23T21:43:09.197Z,8.10
2023-04-23T21:45:37.140Z,8.07
2023-04-23T21:48:05.375Z,7.83
2023-04-23T21:50:34.361Z,7.67
2023-04-23T21:53:03.263Z,8.77
2023-04-23T21:55:32.606Z,8.10
2023-04-23T21:58:13.848Z,8.37
2023-04-23T22:00:45.610Z,7.87
2023-04-23T22:03:20.547Z,8.60
2023-04-23T22:06:04.395Z,8.70
2023-04-23T22:08:32.903Z,8.10
2023-04-23T22:11:02.068Z,8.43
2023-04-23T22:13:29.875Z,9.20
2023-04-23T22:15:57.993Z,8.90
2023-04-23T22:18:25.815Z,8.30
2023-04-23T22:20:53.592Z,8.50
2023-04-23T22:23:21.646Z,8.57
2023-04-23T22:25:49.508Z,8.00
2023-04-23T22:28:18.775Z,8.53
2023-04-23T22:30:46.541Z,8.60
2023-04-23T22:33:14.305Z,8.57
2023-04-23T22:35:42.155Z,8.70
2023-04-23T22:38:09.992Z,8.70
2023-04-23T22:40:37.795Z,8.60
2023-04-23T22:43:06.478Z,8.60
2023-04-23T22:45:35.747Z,8.77
2023-04-23T22:48:04.567Z,9.03
2023-04-23T22:50:32.330Z,9.20
2023-04-23T22:53:00.088Z,9.50
2023-04-23T22:55:27.820Z,9.70
2023-04-23T22:57:55.605Z,9.47
2023-04-23T23:00:23.576Z,10.23
2023-04-23T23:02:53.024Z,9.27
2023-04-23T23:05:21.056Z,10.20
2023-04-23T23:07:48.868Z,9.27
2023-04-23T23:10:16.872Z,9.20
2023-04-23T23:12:44.693Z,8.40
2023-04-23T23:15:13.136Z,8.47
2023-04-23T23:17:41.287Z,10.13
2023-04-23T23:20:12.274Z,9.03
2023-04-23T23:22:40.052Z,8.73
2023-04-23T23:25:08.786Z,9.20
2023-04-23T23:27:36.585Z,9.90
2023-04-23T23:30:05.908Z,8.63
2023-04-23T23:32:34.079Z,9.00
2023-04-23T23:35:02.052Z,9.20
2023-04-23T23:37:31.238Z,8.37
2023-04-23T23:39:59.009Z,8.50
2023-04-23T23:42:26.762Z,8.47
2023-04-23T23:44:54.508Z,8.43
2023-04-23T23:47:22.384Z,8.57
2023-04-23T23:49:50.238Z,8.30
2023-04-23T23:52:19.263Z,8.20
2023-04-23T23:54:48.381Z,8.57
2023-04-23T23:57:16.116Z,8.10
2023-04-23T23:59:44.089Z,8.53
